Airfield :
LOGIN :

Register | Disclaimer

   EN    FR    IT 

 










Legend :    VFR   Marginal VFR   IFR   Intensive IFR   Very Intensive IFR
Visi :
Ceiling :
>= 8 km
>= 3000ft
5 to 8 km
1000 to 3000 ft
1500m to 5 km
500 to 1000 ft
800 to 1500m
200 to 500 ft
< 800m
< 200 ft
Symbols :   Thunderstorms  Fog  Heavy snow  Heavy precipitations  Wind > 20 kt
SIGMETs :     Misc.  Thunderstorms  Icing  Turbulence  Mountain Waves  Volcanic Ashes







- Airport Elevation : 3 ft
- IATA code : DHR


EHKD - Den Helder De Kooy

CURRENT METAR :
  • 231755Z AUTO 24021KT 210V270 9999 FEW042 BKN049 BKN054 11/05 Q1003 BLU 23020G30KT 9999 FEW040 BKN050

EXPIRED METARs :
  • 231725Z AUTO 24021KT 9999 FEW038 BKN044 OVC049 11/05 Q1002 BLU 23020G30KT 9999 FEW040
  • 231706Z AUTO 23021KT 200V260 9999 FEW300 10/05 Q1002 BLU 23020G30KT 9999 FEW040
  • 231655Z AUTO 23020G31KT 9999 NCD 10/05 Q1002 BLU 26018G28KT 9999 FEW040
  • 231625Z AUTO 23018KT 190V250 9999 NCD 10/04 Q1001 BLU 26018G28KT 9999 FEW040
  • 231555Z AUTO 24018KT 9999 NCD 10/03 Q1001 BLU 26018G28KT 9999 FEW040
  • 231525Z AUTO 24017KT 210V270 9999 NCD 10/03 Q1000 BLU 26018G28KT 9999 FEW040

TAF TAF EHKD
Valid from the 23 at 18:00 until the 24 at 06:00 UTC


231732Z 2318/2406 24021KT 9999 SCT035
BECMG 2322/2401 27008KT
No reported NOTAMs for that airfield.



MET'MAP, your aeronautical weather chart ! - Copyright ORBIFLY December 2007 - Disclaimer

ORBIFLY MET'MAP TEAM :

Programming & Development : Alexandra Zaïnal
Concept & Development : Baudouin d'Aumeries
Co-Development & Prog : Marc-Olivier Méhu
Technical & hardware support : Manuel Goepfert

Contact : metmap@orbifly.com




SOURCES & CREDITS :

   NOAA